Time;durP1;ratioP1;P1;durP2;ratioP2;P2;SDS_P1;SDS_P2;PMS_P1;PMS_P2;Temp;Humidity;BMP_temperature;BMP_pressure;BME280_temperature;BME280_humidity;BME280_pressure;Samples;Min_cycle;Max_cycle;Signal;HPM_P1;HPM_P2
2021/01/09 00:00:12;;;;;;;35.40;14.20;;;1.40;99.90;;;;;;5012301;28;20078;-61
2021/01/09 00:02:42;;;;;;;34.40;14.65;;;1.50;99.90;;;;;;5013922;28;20037;-62
2021/01/09 00:05:09;;;;;;;29.42;13.65;;;1.50;99.90;;;;;;5014196;28;20113;-62
2021/01/09 00:07:35;;;;;;;30.00;13.10;;;1.40;99.90;;;;;;5012471;28;20397;-61
2021/01/09 00:10:02;;;;;;;31.40;13.30;;;1.50;99.90;;;;;;5013579;28;20041;-61
2021/01/09 00:12:28;;;;;;;30.98;12.43;;;1.50;99.90;;;;;;5014226;28;20033;-61
2021/01/09 00:14:54;;;;;;;29.30;11.40;;;1.50;99.90;;;;;;5013824;28;20100;-62
2021/01/09 00:17:21;;;;;;;30.17;13.55;;;1.50;99.90;;;;;;5014142;28;20101;-63
2021/01/09 00:19:46;;;;;;;31.45;12.35;;;1.50;99.90;;;;;;5012063;28;20493;-62
2021/01/09 00:22:12;;;;;;;27.83;11.43;;;1.50;99.90;;;;;;5014455;28;20060;-63
2021/01/09 00:24:38;;;;;;;28.67;12.18;;;1.50;99.90;;;;;;4306908;28;10000685;-60
2021/01/09 00:27:11;;;;;;;27.88;12.13;;;1.50;99.90;;;;;;4989408;28;20173;-62
2021/01/09 00:29:41;;;;;;;29.20;12.27;;;1.50;99.90;;;;;;4993415;28;20048;-63
2021/01/09 00:32:08;;;;;;;28.83;10.95;;;1.40;99.90;;;;;;5009513;28;20032;-62
2021/01/09 00:34:33;;;;;;;30.05;13.70;;;1.40;99.90;;;;;;5008288;28;20038;-62
2021/01/09 00:37:00;;;;;;;30.48;12.95;;;1.50;99.90;;;;;;5007624;28;20481;-63
2021/01/09 00:39:26;;;;;;;32.08;11.90;;;1.50;99.90;;;;;;5008953;28;20041;-62
2021/01/09 00:41:51;;;;;;;28.73;11.65;;;1.50;99.90;;;;;;5007400;28;20047;-60
2021/01/09 00:44:17;;;;;;;29.73;14.35;;;1.40;99.90;;;;;;5008163;28;20064;-61
2021/01/09 00:46:43;;;;;;;27.77;13.18;;;1.40;99.90;;;;;;5008585;28;20054;-60
2021/01/09 00:49:08;;;;;;;27.17;11.13;;;1.50;99.90;;;;;;5007557;28;20107;-60
2021/01/09 00:51:34;;;;;;;30.10;12.10;;;1.50;99.90;;;;;;5010049;28;20037;-61
2021/01/09 00:54:00;;;;;;;30.58;12.95;;;1.50;99.90;;;;;;5009916;28;20133;-62
2021/01/09 00:56:26;;;;;;;29.80;12.90;;;1.50;99.90;;;;;;5007853;28;20513;-61
2021/01/09 00:58:52;;;;;;;28.38;13.15;;;1.50;99.90;;;;;;5008700;28;20497;-63
2021/01/09 01:01:18;;;;;;;29.35;12.73;;;1.40;99.90;;;;;;5007792;28;20187;-61
2021/01/09 01:03:44;;;;;;;28.90;12.45;;;1.40;99.90;;;;;;5006667;28;20026;-60
2021/01/09 01:06:10;;;;;;;27.88;12.00;;;1.40;99.90;;;;;;5006559;28;20030;-60
2021/01/09 01:08:37;;;;;;;27.50;12.00;;;1.30;99.90;;;;;;5007226;28;20022;-62
2021/01/09 01:11:05;;;;;;;26.83;11.60;;;1.40;99.90;;;;;;5009707;28;20489;-63
2021/01/09 01:13:30;;;;;;;27.80;11.48;;;1.30;99.90;;;;;;5009896;28;20393;-62
2021/01/09 01:15:56;;;;;;;28.85;12.23;;;1.40;99.90;;;;;;5001572;28;20033;-61
2021/01/09 01:18:22;;;;;;;28.33;11.70;;;1.30;99.90;;;;;;5010163;28;20026;-61
2021/01/09 01:20:49;;;;;;;28.75;12.07;;;1.30;99.90;;;;;;5010995;28;20021;-62
2021/01/09 01:23:16;;;;;;;27.85;12.57;;;1.30;99.90;;;;;;5009786;28;20018;-63
2021/01/09 01:25:42;;;;;;;28.08;12.63;;;1.30;99.90;;;;;;5012619;28;20022;-61
2021/01/09 01:28:08;;;;;;;27.83;13.10;;;1.40;99.90;;;;;;5012558;28;20601;-60
2021/01/09 01:30:33;;;;;;;26.55;11.45;;;1.40;99.90;;;;;;5012638;28;20648;-63
2021/01/09 01:32:59;;;;;;;25.38;12.15;;;1.40;99.90;;;;;;5012854;28;20026;-62
2021/01/09 01:35:24;;;;;;;25.88;12.45;;;1.40;99.90;;;;;;5012345;28;20037;-63
2021/01/09 01:37:50;;;;;;;27.60;12.57;;;1.40;99.90;;;;;;5011915;28;20611;-62
2021/01/09 01:40:16;;;;;;;28.45;13.30;;;1.50;99.90;;;;;;5011477;28;20026;-62
2021/01/09 01:42:41;;;;;;;25.30;12.43;;;1.40;99.90;;;;;;5011197;28;20536;-61
2021/01/09 01:45:08;;;;;;;27.48;11.50;;;1.40;99.90;;;;;;5010947;28;20469;-62
2021/01/09 01:47:35;;;;;;;29.70;12.65;;;1.40;99.90;;;;;;5011475;28;20033;-62
2021/01/09 01:50:01;;;;;;;26.23;11.68;;;1.40;99.90;;;;;;5011309;28;20033;-62
2021/01/09 01:52:27;;;;;;;25.55;11.32;;;1.50;99.90;;;;;;5011810;28;20030;-62
2021/01/09 01:54:53;;;;;;;28.70;12.93;;;1.50;99.90;;;;;;5011815;28;20080;-60
2021/01/09 01:57:19;;;;;;;27.08;11.60;;;1.50;99.90;;;;;;5011821;28;20383;-62
2021/01/09 01:59:45;;;;;;;25.70;12.60;;;1.50;99.90;;;;;;5009865;28;20034;-62
2021/01/09 02:02:13;;;;;;;29.45;12.65;;;1.40;99.90;;;;;;5010498;28;20548;-62
2021/01/09 02:04:40;;;;;;;29.48;12.75;;;1.30;99.90;;;;;;5010610;28;20026;-62
2021/01/09 02:07:13;;;;;;;28.58;13.02;;;1.30;99.90;;;;;;5011408;28;20069;-62
2021/01/09 02:09:42;;;;;;;29.02;12.82;;;1.40;99.90;;;;;;5009638;28;20508;-61
2021/01/09 02:12:16;;;;;;;30.58;14.15;;;1.40;99.90;;;;;;5011743;28;20379;-61
2021/01/09 02:14:55;;;;;;;28.42;14.27;;;1.40;99.90;;;;;;5013088;28;20025;-63
2021/01/09 02:17:21;;;;;;;27.08;13.98;;;1.40;99.90;;;;;;5012407;28;20032;-61
2021/01/09 02:19:48;;;;;;;31.92;13.52;;;1.30;99.90;;;;;;5010759;28;20078;-62
2021/01/09 02:22:15;;;;;;;30.58;14.65;;;1.30;99.90;;;;;;5012898;28;20021;-63
2021/01/09 02:24:47;;;;;;;28.70;13.25;;;1.30;99.90;;;;;;5012181;28;20041;-62
2021/01/09 02:27:13;;;;;;;29.95;13.65;;;1.30;99.90;;;;;;5010029;28;20452;-62
2021/01/09 02:29:48;;;;;;;27.75;12.45;;;1.30;99.90;;;;;;5010600;28;20064;-62
2021/01/09 02:32:18;;;;;;;27.52;12.13;;;1.40;99.90;;;;;;5010020;28;20117;-62
2021/01/09 02:34:47;;;;;;;33.13;13.90;;;1.40;99.90;;;;;;5011177;28;20528;-61
2021/01/09 02:37:13;;;;;;;27.38;13.10;;;1.40;99.90;;;;;;5009403;28;20033;-62
2021/01/09 02:39:39;;;;;;;27.75;12.80;;;1.30;99.90;;;;;;5010366;28;20491;-62
2021/01/09 02:42:06;;;;;;;28.30;12.70;;;1.20;99.90;;;;;;5011148;28;20022;-63
2021/01/09 02:44:32;;;;;;;29.23;14.77;;;1.30;99.90;;;;;;4991363;28;20019;-62
2021/01/09 02:46:58;;;;;;;31.85;13.95;;;1.30;99.90;;;;;;4993568;28;20027;-63
2021/01/09 02:49:24;;;;;;;27.83;12.13;;;1.30;99.90;;;;;;5008542;28;20022;-62
2021/01/09 02:51:50;;;;;;;27.65;11.88;;;1.30;99.90;;;;;;5009936;28;20112;-60
2021/01/09 02:54:15;;;;;;;31.58;13.90;;;1.20;99.90;;;;;;5009538;28;20021;-63
2021/01/09 02:56:41;;;;;;;30.15;13.82;;;1.20;99.90;;;;;;5014084;23;20048;-51
2021/01/09 02:59:06;;;;;;;29.42;13.35;;;1.20;99.90;;;;;;5029960;28;20116;-54
2021/01/09 03:01:32;;;;;;;29.00;13.50;;;1.20;99.90;;;;;;5030524;28;20045;-57
2021/01/09 03:03:58;;;;;;;28.02;13.70;;;1.20;99.90;;;;;;5030373;28;20390;-57
2021/01/09 03:06:27;;;;;;;29.23;14.20;;;1.20;99.90;;;;;;5027662;28;20030;-52
2021/01/09 03:08:53;;;;;;;28.50;12.38;;;1.20;99.90;;;;;;5018259;28;20124;-54
2021/01/09 03:11:19;;;;;;;26.42;11.68;;;1.20;99.90;;;;;;5031585;28;20036;-57
2021/01/09 03:13:45;;;;;;;27.65;12.73;;;1.20;99.90;;;;;;5032103;28;20401;-52
2021/01/09 03:16:11;;;;;;;27.75;12.98;;;1.20;99.90;;;;;;5022356;28;20083;-57
2021/01/09 03:18:37;;;;;;;27.05;12.43;;;1.20;99.90;;;;;;5011416;28;20512;-54
2021/01/09 03:21:04;;;;;;;31.58;14.65;;;1.20;99.90;;;;;;5010776;28;20442;-58
2021/01/09 03:23:29;;;;;;;28.35;12.68;;;1.20;99.90;;;;;;5023124;28;20037;-52
2021/01/09 03:25:55;;;;;;;29.25;13.18;;;1.10;99.90;;;;;;5030184;28;20022;-52
2021/01/09 03:28:21;;;;;;;27.38;13.27;;;1.10;99.90;;;;;;5029327;28;20083;-57
2021/01/09 03:30:46;;;;;;;29.20;13.98;;;1.10;99.90;;;;;;5031639;28;20037;-55
2021/01/09 03:33:12;;;;;;;27.83;13.25;;;1.10;99.90;;;;;;5032942;28;20083;-58
2021/01/09 03:35:38;;;;;;;28.60;13.88;;;1.10;99.90;;;;;;5029372;28;20052;-56
2021/01/09 03:38:03;;;;;;;28.20;13.60;;;1.20;99.90;;;;;;5035544;28;20440;-56
2021/01/09 03:40:29;;;;;;;28.73;14.07;;;1.20;99.90;;;;;;5022735;28;20032;-55
2021/01/09 03:42:55;;;;;;;27.38;12.50;;;1.20;99.90;;;;;;5014364;28;20026;-56
2021/01/09 03:45:21;;;;;;;28.48;12.75;;;1.30;99.90;;;;;;5014483;28;20018;-56
2021/01/09 03:47:46;;;;;;;30.15;13.05;;;1.20;99.90;;;;;;5014234;28;20041;-55
2021/01/09 03:50:12;;;;;;;30.55;13.60;;;1.20;99.90;;;;;;5013973;28;20022;-54
2021/01/09 03:52:38;;;;;;;27.45;12.68;;;1.10;99.90;;;;;;5027163;28;20044;-53
2021/01/09 03:55:05;;;;;;;27.90;12.95;;;1.10;99.90;;;;;;5034169;28;20034;-56
2021/01/09 03:57:31;;;;;;;27.00;12.57;;;1.10;99.90;;;;;;5035164;28;20041;-54
2021/01/09 03:59:58;;;;;;;28.52;11.93;;;1.10;99.90;;;;;;5034824;28;20803;-54
2021/01/09 04:02:24;;;;;;;26.48;11.77;;;1.10;99.90;;;;;;5032180;28;20156;-57
2021/01/09 04:04:50;;;;;;;34.70;14.27;;;1.10;99.90;;;;;;5035175;28;20014;-58
2021/01/09 04:07:15;;;;;;;27.20;12.90;;;1.00;99.90;;;;;;5028131;28;20022;-56
2021/01/09 04:09:41;;;;;;;27.05;13.18;;;1.00;99.90;;;;;;5012992;28;20025;-56
2021/01/09 04:12:06;;;;;;;26.33;12.30;;;0.90;99.90;;;;;;5014354;28;20018;-53
2021/01/09 04:14:32;;;;;;;29.92;12.77;;;0.90;99.90;;;;;;5015249;28;20058;-58
2021/01/09 04:16:58;;;;;;;34.78;14.25;;;1.00;99.90;;;;;;5031854;28;20116;-57
2021/01/09 04:19:24;;;;;;;27.67;13.13;;;1.00;99.90;;;;;;5034055;28;20087;-54
2021/01/09 04:21:54;;;;;;;30.42;12.77;;;1.00;99.90;;;;;;5034554;28;20021;-56
2021/01/09 04:24:21;;;;;;;28.00;12.85;;;1.10;99.90;;;;;;5035278;28;20029;-57
2021/01/09 04:26:58;;;;;;;26.60;12.95;;;1.00;99.90;;;;;;5033417;28;20048;-55
2021/01/09 04:29:24;;;;;;;27.30;12.20;;;1.00;99.90;;;;;;5034334;28;20025;-51
2021/01/09 04:31:50;;;;;;;30.80;13.43;;;1.00;99.90;;;;;;5033489;28;20079;-54
2021/01/09 04:34:17;;;;;;;27.75;12.63;;;1.00;99.90;;;;;;5021111;28;20108;-56
2021/01/09 04:36:43;;;;;;;25.58;12.32;;;1.00;99.90;;;;;;5031155;28;20120;-56
2021/01/09 04:39:08;;;;;;;30.05;13.90;;;0.90;99.90;;;;;;5034036;28;20453;-55
2021/01/09 04:41:36;;;;;;;26.42;11.73;;;1.00;99.90;;;;;;5034471;28;20026;-55
2021/01/09 04:44:06;;;;;;;27.07;13.30;;;0.90;99.90;;;;;;5035021;28;20040;-55
2021/01/09 04:46:43;;;;;;;26.83;12.73;;;0.90;99.90;;;;;;5022729;28;20493;-55
2021/01/09 04:49:10;;;;;;;28.08;12.27;;;1.00;99.90;;;;;;5014183;28;20509;-55
2021/01/09 04:51:37;;;;;;;29.58;12.18;;;0.90;99.90;;;;;;5014877;28;20026;-54
2021/01/09 04:54:03;;;;;;;29.10;13.38;;;0.90;99.90;;;;;;5013648;28;20030;-53
2021/01/09 04:56:29;;;;;;;27.67;13.75;;;0.90;99.90;;;;;;5014429;28;20080;-51
2021/01/09 04:58:55;;;;;;;28.95;12.23;;;0.90;99.90;;;;;;5012550;28;20091;-56
2021/01/09 05:01:21;;;;;;;31.98;13.52;;;0.90;99.90;;;;;;5013018;28;20116;-54
2021/01/09 05:03:48;;;;;;;28.30;13.57;;;0.90;99.90;;;;;;5014048;28;20022;-54
2021/01/09 05:06:23;;;;;;;26.55;11.95;;;0.90;99.90;;;;;;5021090;28;20017;-55
2021/01/09 05:08:48;;;;;;;30.65;12.60;;;0.80;99.90;;;;;;5012499;28;20046;-53
2021/01/09 05:11:18;;;;;;;28.77;13.95;;;0.80;99.90;;;;;;5022345;28;20053;-54
2021/01/09 05:13:47;;;;;;;25.52;11.48;;;0.90;99.90;;;;;;5014907;28;20136;-57
2021/01/09 05:16:14;;;;;;;27.40;12.27;;;0.90;99.90;;;;;;5024267;28;20025;-54
2021/01/09 05:18:40;;;;;;;28.13;14.00;;;0.90;99.90;;;;;;5017022;28;20036;-55
2021/01/09 05:21:06;;;;;;;30.23;13.20;;;0.90;99.90;;;;;;5032674;28;20033;-55
2021/01/09 05:23:49;;;;;;;31.77;12.35;;;0.90;99.90;;;;;;5018215;28;20022;-56
2021/01/09 05:26:18;;;;;;;26.75;13.80;;;0.90;99.90;;;;;;5012782;28;20025;-54
2021/01/09 05:28:52;;;;;;;30.27;13.40;;;0.90;99.90;;;;;;5012034;28;20057;-54
2021/01/09 05:31:19;;;;;;;29.23;13.43;;;0.90;99.90;;;;;;5014415;28;20037;-58
2021/01/09 05:33:45;;;;;;;24.45;11.95;;;0.90;99.90;;;;;;5033287;28;20431;-54
2021/01/09 05:36:11;;;;;;;29.42;14.30;;;0.90;99.90;;;;;;5032240;28;20021;-53
2021/01/09 05:38:39;;;;;;;27.55;12.38;;;0.90;99.90;;;;;;5025268;28;20408;-54
2021/01/09 05:41:07;;;;;;;26.42;12.13;;;0.90;99.90;;;;;;5013718;28;20029;-56
2021/01/09 05:43:33;;;;;;;31.80;13.70;;;0.90;99.90;;;;;;5013676;28;20552;-54
2021/01/09 05:46:00;;;;;;;31.25;13.88;;;0.90;99.90;;;;;;5023108;28;20026;-57
2021/01/09 05:48:30;;;;;;;31.33;13.75;;;0.90;99.90;;;;;;5029572;28;20025;-54
2021/01/09 05:50:59;;;;;;;28.92;13.00;;;0.90;99.90;;;;;;5027763;28;20030;-54
2021/01/09 05:53:38;;;;;;;28.05;13.75;;;0.80;99.90;;;;;;5012784;28;20473;-53
2021/01/09 05:56:04;;;;;;;28.00;13.15;;;0.80;99.90;;;;;;5013228;28;20117;-58
2021/01/09 05:58:30;;;;;;;29.90;13.73;;;0.80;99.90;;;;;;5011581;28;20611;-56
2021/01/09 06:00:58;;;;;;;27.92;12.45;;;0.90;99.90;;;;;;5030845;28;20091;-54
2021/01/09 06:03:39;;;;;;;30.48;13.43;;;0.90;99.90;;;;;;5033206;28;20057;-57
2021/01/09 06:06:26;;;;;;;31.13;13.90;;;0.90;99.90;;;;;;5024807;28;20034;-56
2021/01/09 06:08:59;;;;;;;30.42;13.43;;;0.90;99.90;;;;;;5030880;28;20071;-54
2021/01/09 06:11:34;;;;;;;28.30;13.60;;;0.90;99.90;;;;;;5032891;28;20050;-56
2021/01/09 06:14:01;;;;;;;28.85;12.48;;;0.90;99.90;;;;;;5014501;28;20032;-56
2021/01/09 06:16:30;;;;;;;27.75;12.90;;;0.90;99.90;;;;;;5023514;28;20029;-54
2021/01/09 06:18:57;;;;;;;26.77;13.45;;;0.80;99.90;;;;;;5025018;28;20026;-55
2021/01/09 06:21:23;;;;;;;30.10;12.98;;;0.90;99.90;;;;;;5012773;28;20025;-54
2021/01/09 06:23:51;;;;;;;31.15;13.23;;;0.80;99.90;;;;;;5030343;28;20030;-53
2021/01/09 06:26:17;;;;;;;31.73;14.37;;;0.80;99.90;;;;;;5031493;28;20053;-58
2021/01/09 06:28:50;;;;;;;30.98;14.63;;;0.70;99.90;;;;;;5016931;28;20042;-53
2021/01/09 06:31:19;;;;;;;33.67;15.45;;;0.60;99.90;;;;;;5027169;28;20022;-55
2021/01/09 06:33:48;;;;;;;39.13;15.30;;;0.60;99.90;;;;;;5018367;28;20025;-55
2021/01/09 06:36:14;;;;;;;55.92;16.75;;;0.60;99.90;;;;;;5018721;28;20171;-58
2021/01/09 06:38:45;;;;;;;47.85;16.42;;;0.60;99.90;;;;;;5031612;28;20116;-58
2021/01/09 06:41:16;;;;;;;45.85;17.23;;;0.60;99.90;;;;;;5029434;28;20489;-54
2021/01/09 06:43:51;;;;;;;60.60;20.65;;;0.50;99.90;;;;;;5011711;28;20074;-51
2021/01/09 06:46:36;;;;;;;53.42;18.92;;;0.50;99.90;;;;;;5015844;28;20421;-54
2021/01/09 06:49:03;;;;;;;80.55;21.45;;;0.50;99.90;;;;;;5015107;28;20025;-54
2021/01/09 06:51:34;;;;;;;104.55;22.17;;;0.50;99.90;;;;;;5027409;28;20165;-55
2021/01/09 06:54:15;;;;;;;125.25;22.83;;;0.50;99.90;;;;;;5013785;28;20061;-56
2021/01/09 06:56:42;;;;;;;60.38;18.58;;;0.50;99.90;;;;;;4992475;28;20065;-57
2021/01/09 06:59:08;;;;;;;71.80;20.83;;;0.50;99.90;;;;;;4991051;28;20034;-55
2021/01/09 07:01:37;;;;;;;76.75;19.77;;;0.50;99.90;;;;;;4990971;28;20352;-57
2021/01/09 07:04:07;;;;;;;81.60;20.52;;;0.50;99.90;;;;;;4991612;28;20042;-54
2021/01/09 07:06:51;;;;;;;68.57;22.88;;;0.50;99.90;;;;;;5006833;28;20382;-54
2021/01/09 07:09:27;;;;;;;131.38;24.00;;;0.50;99.90;;;;;;5022484;28;20024;-55
2021/01/09 07:11:55;;;;;;;107.45;23.63;;;0.50;99.90;;;;;;5019457;28;20032;-55
2021/01/09 07:14:21;;;;;;;;;;;0.40;99.90;;;;;;5020422;28;20028;-53
2021/01/09 07:16:48;;;;;;;60.38;17.48;;;0.50;99.90;;;;;;5010905;28;19952;-58
2021/01/09 07:19:15;;;;;;;75.03;21.38;;;0.40;99.90;;;;;;5010797;28;20057;-57
2021/01/09 07:21:44;;;;;;;47.95;17.38;;;0.50;99.90;;;;;;5022244;28;20030;-52
2021/01/09 07:24:12;;;;;;;55.60;18.23;;;0.50;99.90;;;;;;5007203;28;20018;-58
2021/01/09 07:26:39;;;;;;;67.40;21.00;;;0.50;99.90;;;;;;4998745;28;20425;-55
2021/01/09 07:29:05;;;;;;;64.03;21.02;;;0.50;99.90;;;;;;5011269;28;20018;-57
2021/01/09 07:31:34;;;;;;;51.88;18.20;;;0.50;99.90;;;;;;5010789;28;20473;-57
2021/01/09 07:34:00;;;;;;;54.17;18.77;;;0.50;99.90;;;;;;5001229;28;20412;-53
2021/01/09 07:36:27;;;;;;;55.80;18.63;;;0.50;99.90;;;;;;5019323;28;20092;-57
2021/01/09 07:39:02;;;;;;;45.55;17.73;;;0.50;99.90;;;;;;5019267;28;20025;-56
2021/01/09 07:41:33;;;;;;;40.00;18.42;;;0.50;99.90;;;;;;5010829;28;20080;-55
2021/01/09 07:44:16;;;;;;;44.97;19.00;;;0.50;99.90;;;;;;5012248;28;20022;-58
2021/01/09 07:46:56;;;;;;;42.80;17.45;;;0.60;99.90;;;;;;5010771;28;20033;-58
2021/01/09 07:49:29;;;;;;;42.75;17.35;;;0.60;99.90;;;;;;5009806;28;20145;-55
2021/01/09 07:52:02;;;;;;;41.80;17.70;;;0.70;99.90;;;;;;5010649;28;20188;-52
2021/01/09 07:54:37;;;;;;;49.95;17.73;;;0.70;99.90;;;;;;5012331;28;20072;-57
2021/01/09 07:57:27;;;;;;;41.72;17.38;;;0.70;99.90;;;;;;5008019;28;20106;-56
2021/01/09 07:59:55;;;;;;;53.55;19.02;;;0.70;99.90;;;;;;5011203;28;20379;-55
2021/01/09 08:02:37;;;;;;;51.55;17.45;;;0.80;99.90;;;;;;5011811;28;20029;-54
2021/01/09 08:05:02;;;;;;;46.63;17.30;;;0.80;99.90;;;;;;5011514;28;20029;-54
2021/01/09 08:07:28;;;;;;;41.45;16.42;;;0.80;99.90;;;;;;5011258;28;20034;-56
2021/01/09 08:09:54;;;;;;;47.72;17.17;;;0.80;99.90;;;;;;5011172;28;20482;-56
2021/01/09 08:12:27;;;;;;;48.25;16.52;;;0.80;99.90;;;;;;5010518;28;20041;-56
2021/01/09 08:14:56;;;;;;;55.05;17.58;;;0.80;99.90;;;;;;5019632;28;20401;-52
2021/01/09 08:17:22;;;;;;;41.08;16.23;;;0.90;99.90;;;;;;5030615;28;20029;-58
2021/01/09 08:19:48;;;;;;;50.92;17.40;;;0.90;99.90;;;;;;5034178;28;20100;-55
2021/01/09 08:22:14;;;;;;;34.22;14.75;;;0.90;99.90;;;;;;5033617;28;20071;-55
2021/01/09 08:24:40;;;;;;;49.72;17.20;;;0.90;99.90;;;;;;5022042;28;20019;-53
2021/01/09 08:27:06;;;;;;;39.17;16.95;;;1.00;99.90;;;;;;5016213;28;20435;-61
2021/01/09 08:29:31;;;;;;;46.08;17.13;;;0.90;99.90;;;;;;5027845;28;20030;-57
2021/01/09 08:31:58;;;;;;;42.30;16.88;;;0.90;99.90;;;;;;5019574;28;20643;-53
2021/01/09 08:34:24;;;;;;;34.55;16.00;;;1.00;99.90;;;;;;5030862;28;20030;-59
2021/01/09 08:36:54;;;;;;;36.25;14.73;;;1.00;99.90;;;;;;5024767;28;20022;-55
2021/01/09 08:39:19;;;;;;;41.35;14.52;;;1.10;99.90;;;;;;5023256;28;20026;-58
2021/01/09 08:41:45;;;;;;;38.25;14.50;;;1.20;99.90;;;;;;5014684;28;20040;-54
2021/01/09 08:44:14;;;;;;;35.63;13.95;;;1.10;99.90;;;;;;5019204;28;20579;-52
2021/01/09 08:46:42;;;;;;;35.35;13.30;;;1.10;99.90;;;;;;5017873;28;20018;-55
2021/01/09 08:49:27;;;;;;;34.08;14.20;;;1.20;99.90;;;;;;5020289;28;20110;-56
2021/01/09 08:52:02;;;;;;;33.83;14.63;;;1.20;99.90;;;;;;5014729;28;20038;-54
2021/01/09 08:54:31;;;;;;;30.50;12.68;;;1.20;99.90;;;;;;5009589;28;20030;-51
2021/01/09 08:56:57;;;;;;;33.72;14.05;;;1.20;99.90;;;;;;5017916;28;20042;-56
2021/01/09 08:59:23;;;;;;;31.73;14.13;;;1.20;99.90;;;;;;5023258;28;20025;-55
2021/01/09 09:02:07;;;;;;;30.70;13.02;;;1.20;99.90;;;;;;5017590;28;20029;-61
2021/01/09 09:04:35;;;;;;;33.72;14.25;;;1.20;99.90;;;;;;5013419;28;20018;-56
2021/01/09 09:07:05;;;;;;;30.43;11.83;;;1.30;99.90;;;;;;5021884;28;20025;-58
2021/01/09 09:09:32;;;;;;;29.70;12.93;;;1.40;99.90;;;;;;5019694;28;20287;-57
2021/01/09 09:11:58;;;;;;;35.75;12.88;;;1.40;99.90;;;;;;5022012;28;20578;-56
2021/01/09 09:14:26;;;;;;;30.13;13.70;;;1.40;99.90;;;;;;5020792;28;20025;-53
2021/01/09 09:17:06;;;;;;;28.38;13.43;;;1.50;99.90;;;;;;5022659;28;20026;-54
2021/01/09 09:19:36;;;;;;;28.83;11.88;;;1.30;99.90;;;;;;5021687;28;20146;-53
2021/01/09 09:22:02;;;;;;;30.40;12.77;;;1.40;99.90;;;;;;5020842;28;20096;-52
2021/01/09 09:24:40;;;;;;;29.90;13.77;;;1.40;99.90;;;;;;5016211;28;20113;-55
2021/01/09 09:27:26;;;;;;;30.38;13.32;;;1.50;99.90;;;;;;5023951;28;20478;-54
2021/01/09 09:30:11;;;;;;;29.10;12.77;;;1.60;99.90;;;;;;5012958;28;20029;-58
2021/01/09 09:32:38;;;;;;;33.35;15.02;;;1.80;99.90;;;;;;5032447;28;20017;-57
2021/01/09 09:35:29;;;;;;;30.40;13.73;;;1.70;99.90;;;;;;5023820;28;20084;-59
2021/01/09 09:37:59;;;;;;;49.97;16.83;;;1.80;99.90;;;;;;5018485;28;20082;-63
2021/01/09 09:40:33;;;;;;;28.98;12.18;;;1.90;99.90;;;;;;5033758;28;20389;-63
2021/01/09 09:43:19;;;;;;;29.70;12.68;;;2.00;99.90;;;;;;5032493;28;20183;-63
2021/01/09 09:46:02;;;;;;;29.38;11.63;;;2.00;99.90;;;;;;5019406;28;20018;-59
2021/01/09 09:48:39;;;;;;;28.35;12.52;;;2.00;99.90;;;;;;5014774;28;20393;-62
2021/01/09 09:51:08;;;;;;;28.17;12.70;;;2.00;99.90;;;;;;5011753;28;20058;-62
2021/01/09 09:53:35;;;;;;;30.50;13.63;;;1.90;99.90;;;;;;5013609;28;20030;-62
2021/01/09 09:56:36;;;;;;;25.50;11.63;;;1.90;99.90;;;;;;5011719;28;20028;-60
2021/01/09 09:59:06;;;;;;;29.02;13.55;;;2.00;99.90;;;;;;5011211;28;20048;-62
2021/01/09 10:01:33;;;;;;;31.58;13.63;;;1.90;99.90;;;;;;5033078;28;20056;-63
2021/01/09 10:04:00;;;;;;;27.73;13.00;;;2.00;99.90;;;;;;5033561;28;20025;-64
2021/01/09 10:06:40;;;;;;;27.43;12.23;;;2.10;99.90;;;;;;5022361;28;20026;-62
2021/01/09 10:09:13;;;;;;;26.80;13.02;;;2.10;99.90;;;;;;5028171;28;20029;-64
2021/01/09 10:11:41;;;;;;;28.60;13.80;;;2.20;99.90;;;;;;5012119;28;20045;-62
2021/01/09 10:14:07;;;;;;;27.35;12.40;;;2.30;99.90;;;;;;5022320;28;20049;-63
2021/01/09 10:16:33;;;;;;;28.17;13.52;;;2.40;99.90;;;;;;5032646;28;20033;-62
2021/01/09 10:18:59;;;;;;;28.00;12.27;;;2.40;99.90;;;;;;5032411;28;20100;-64
2021/01/09 10:21:29;;;;;;;27.05;13.00;;;2.40;99.90;;;;;;5033483;28;20026;-62
2021/01/09 10:23:59;;;;;;;26.73;12.45;;;2.40;99.90;;;;;;5032148;28;20018;-63
2021/01/09 10:26:26;;;;;;;28.23;11.88;;;2.30;99.90;;;;;;5016941;28;20476;-61
2021/01/09 10:28:52;;;;;;;26.52;12.25;;;2.40;99.90;;;;;;5011413;28;20209;-63
2021/01/09 10:31:18;;;;;;;26.52;12.18;;;2.40;99.90;;;;;;5021200;28;20081;-63
2021/01/09 10:33:44;;;;;;;24.23;11.50;;;2.60;99.90;;;;;;5002046;28;20110;-58
2021/01/09 10:36:09;;;;;;;25.98;11.32;;;2.70;99.90;;;;;;5004561;28;20113;-57
2021/01/09 10:38:35;;;;;;;26.20;11.60;;;2.80;99.90;;;;;;5011795;28;20052;-58
2021/01/09 10:41:01;;;;;;;25.70;12.95;;;2.80;99.90;;;;;;5010273;28;20022;-57
2021/01/09 10:43:26;;;;;;;22.60;9.60;;;2.80;99.90;;;;;;4976954;28;20044;-57
2021/01/09 10:45:52;;;;;;;22.42;9.63;;;2.80;99.90;;;;;;5016851;28;20030;-52
2021/01/09 10:48:17;;;;;;;24.15;10.70;;;2.80;99.90;;;;;;5014644;28;20539;-59
2021/01/09 10:50:43;;;;;;;25.27;11.30;;;2.80;99.90;;;;;;5011089;28;20140;-55
2021/01/09 10:53:10;;;;;;;26.05;11.68;;;2.90;99.90;;;;;;5019063;28;20029;-54
2021/01/09 10:55:40;;;;;;;25.65;12.70;;;2.90;99.90;;;;;;5032461;28;20029;-54
2021/01/09 10:58:06;;;;;;;24.42;12.30;;;3.00;99.90;;;;;;5020559;28;20559;-55
2021/01/09 11:00:31;;;;;;;24.65;11.77;;;2.90;99.90;;;;;;5022662;28;20029;-52
2021/01/09 11:02:59;;;;;;;24.40;11.88;;;3.00;99.90;;;;;;5029576;28;20030;-56
2021/01/09 11:05:29;;;;;;;24.63;11.37;;;3.00;99.90;;;;;;5030132;28;20695;-54
2021/01/09 11:07:55;;;;;;;22.35;10.15;;;3.10;99.90;;;;;;5021961;28;20026;-58
2021/01/09 11:10:21;;;;;;;22.23;11.10;;;3.00;99.90;;;;;;5029869;28;20021;-56
2021/01/09 11:12:46;;;;;;;22.15;9.95;;;3.10;99.90;;;;;;5019363;28;20060;-55
2021/01/09 11:15:13;;;;;;;21.50;9.80;;;3.20;99.90;;;;;;5012773;28;20037;-52
2021/01/09 11:17:39;;;;;;;21.88;10.07;;;3.30;99.90;;;;;;5011199;28;20034;-54
2021/01/09 11:20:05;;;;;;;23.67;11.45;;;3.30;99.90;;;;;;5011008;28;20037;-55
2021/01/09 11:22:31;;;;;;;23.42;10.75;;;3.30;99.90;;;;;;5008775;28;20076;-54
2021/01/09 11:24:57;;;;;;;21.23;10.18;;;3.20;99.90;;;;;;5010394;28;20022;-53
2021/01/09 11:27:22;;;;;;;23.42;10.70;;;3.20;99.90;;;;;;5011574;28;20068;-54
2021/01/09 11:29:48;;;;;;;24.20;10.32;;;3.20;99.90;;;;;;5010926;28;20110;-54
2021/01/09 11:32:14;;;;;;;23.83;11.85;;;3.30;99.90;;;;;;5010643;28;20037;-55
2021/01/09 11:34:40;;;;;;;21.63;10.52;;;3.30;99.90;;;;;;5010689;28;20030;-56
2021/01/09 11:37:06;;;;;;;21.60;9.90;;;3.30;99.90;;;;;;5011572;28;20076;-59
2021/01/09 11:39:31;;;;;;;22.40;10.80;;;3.40;99.90;;;;;;5010539;28;20441;-52
2021/01/09 11:42:00;;;;;;;21.02;9.23;;;3.40;99.90;;;;;;5011330;28;20494;-54
2021/01/09 11:44:25;;;;;;;;;;;3.40;99.90;;;;;;5010765;28;20440;-51
2021/01/09 11:46:53;;;;;;;21.08;9.48;;;3.30;99.90;;;;;;5009987;28;19905;-51
2021/01/09 11:49:19;;;;;;;21.60;9.57;;;3.40;99.90;;;;;;5010985;28;20101;-55
2021/01/09 11:51:45;;;;;;;24.63;10.45;;;3.30;99.90;;;;;;5010371;28;20446;-58
2021/01/09 11:54:10;;;;;;;20.63;8.93;;;3.30;99.90;;;;;;5015587;28;20034;-54
2021/01/09 11:56:36;;;;;;;23.83;9.98;;;3.30;99.90;;;;;;5015373;28;20052;-58
2021/01/09 11:59:02;;;;;;;22.77;10.00;;;3.30;99.90;;;;;;5014909;28;20152;-54
2021/01/09 12:01:39;;;;;;;24.90;10.32;;;3.30;99.90;;;;;;5015042;28;20211;-51
2021/01/09 12:04:05;;;;;;;21.73;9.90;;;3.40;99.90;;;;;;5014056;28;20032;-56
2021/01/09 12:06:32;;;;;;;23.92;10.85;;;3.50;99.90;;;;;;5013700;28;20113;-54
2021/01/09 12:08:57;;;;;;;23.02;11.38;;;3.60;99.90;;;;;;5013407;28;20021;-53
2021/01/09 12:11:23;;;;;;;24.48;11.02;;;3.70;99.90;;;;;;5015023;28;20022;-55
2021/01/09 12:13:48;;;;;;;24.75;11.48;;;3.90;99.90;;;;;;5015112;28;20037;-55
2021/01/09 12:16:14;;;;;;;23.42;10.35;;;4.20;99.90;;;;;;5013977;28;20026;-56
2021/01/09 12:18:40;;;;;;;22.77;10.65;;;4.50;99.90;;;;;;5013223;28;20057;-51
2021/01/09 12:21:06;;;;;;;23.73;11.20;;;4.60;99.90;;;;;;5013754;28;20544;-52
2021/01/09 12:23:32;;;;;;;21.73;10.43;;;4.40;99.90;;;;;;5013503;28;20096;-56
2021/01/09 12:25:58;;;;;;;22.52;10.20;;;4.20;99.90;;;;;;5014867;28;20097;-52
2021/01/09 12:28:23;;;;;;;25.35;10.52;;;4.10;99.90;;;;;;5014579;28;20098;-53
2021/01/09 12:30:49;;;;;;;24.63;9.93;;;4.20;99.90;;;;;;5014781;28;20030;-55
2021/01/09 12:33:16;;;;;;;21.58;9.63;;;4.30;99.90;;;;;;5014846;28;20038;-55
2021/01/09 12:35:41;;;;;;;22.27;10.30;;;4.30;99.90;;;;;;5013265;28;20045;-53
2021/01/09 12:38:07;;;;;;;22.02;10.50;;;4.10;99.90;;;;;;5013191;28;20149;-54
2021/01/09 12:40:35;;;;;;;20.85;9.13;;;4.20;99.90;;;;;;5014327;28;20238;-56
2021/01/09 12:43:01;;;;;;;21.17;9.05;;;4.20;99.90;;;;;;5013436;28;20029;-55